sensor_id;sensor_type;location;lat;lon;timestamp;P1;durP1;ratioP1;P2;durP2;ratioP2
6852;SDS011;3465;42.144;24.722;2022-12-07T00:01:35;44.43;;;19.47;;
6852;SDS011;3465;42.144;24.722;2022-12-07T00:04:04;45.93;;;19.83;;
6852;SDS011;3465;42.144;24.722;2022-12-07T00:06:34;52.13;;;19.67;;
6852;SDS011;3465;42.144;24.722;2022-12-07T00:09:02;43.20;;;18.53;;
6852;SDS011;3465;42.144;24.722;2022-12-07T00:11:28;43.37;;;19.20;;
6852;SDS011;3465;42.144;24.722;2022-12-07T00:13:55;44.30;;;18.87;;
6852;SDS011;3465;42.144;24.722;2022-12-07T00:16:26;43.27;;;18.83;;
6852;SDS011;3465;42.144;24.722;2022-12-07T00:18:58;41.47;;;18.43;;
6852;SDS011;3465;42.144;24.722;2022-12-07T00:21:26;43.73;;;18.63;;
6852;SDS011;3465;42.144;24.722;2022-12-07T00:23:53;46.63;;;17.70;;
6852;SDS011;3465;42.144;24.722;2022-12-07T00:26:21;46.57;;;18.90;;
6852;SDS011;3465;42.144;24.722;2022-12-07T00:28:51;47.77;;;19.43;;
6852;SDS011;3465;42.144;24.722;2022-12-07T00:31:19;45.17;;;19.47;;
6852;SDS011;3465;42.144;24.722;2022-12-07T00:33:46;47.03;;;18.00;;
6852;SDS011;3465;42.144;24.722;2022-12-07T00:36:14;45.17;;;19.93;;
6852;SDS011;3465;42.144;24.722;2022-12-07T00:38:41;38.73;;;16.97;;
6852;SDS011;3465;42.144;24.722;2022-12-07T00:41:08;38.93;;;16.90;;
6852;SDS011;3465;42.144;24.722;2022-12-07T00:43:36;40.67;;;17.47;;
6852;SDS011;3465;42.144;24.722;2022-12-07T00:46:01;208.77;;;29.27;;
6852;SDS011;3465;42.144;24.722;2022-12-07T00:48:27;68.67;;;22.63;;
6852;SDS011;3465;42.144;24.722;2022-12-07T00:50:52;51.00;;;19.33;;
6852;SDS011;3465;42.144;24.722;2022-12-07T00:53:18;73.00;;;19.67;;
6852;SDS011;3465;42.144;24.722;2022-12-07T00:55:44;61.07;;;19.60;;
6852;SDS011;3465;42.144;24.722;2022-12-07T00:58:09;49.97;;;19.53;;
6852;SDS011;3465;42.144;24.722;2022-12-07T01:00:36;46.70;;;18.47;;
6852;SDS011;3465;42.144;24.722;2022-12-07T01:03:03;44.13;;;17.43;;
6852;SDS011;3465;42.144;24.722;2022-12-07T01:05:29;42.03;;;17.53;;
6852;SDS011;3465;42.144;24.722;2022-12-07T01:07:54;43.87;;;18.37;;
6852;SDS011;3465;42.144;24.722;2022-12-07T01:10:23;43.43;;;17.53;;
6852;SDS011;3465;42.144;24.722;2022-12-07T01:12:48;40.30;;;17.40;;
6852;SDS011;3465;42.144;24.722;2022-12-07T01:15:14;48.80;;;17.30;;
6852;SDS011;3465;42.144;24.722;2022-12-07T01:17:39;38.53;;;17.30;;
6852;SDS011;3465;42.144;24.722;2022-12-07T01:20:05;42.23;;;17.00;;
6852;SDS011;3465;42.144;24.722;2022-12-07T01:22:31;41.83;;;17.30;;
6852;SDS011;3465;42.144;24.722;2022-12-07T01:25:01;38.97;;;16.43;;
6852;SDS011;3465;42.144;24.722;2022-12-07T01:27:26;43.03;;;17.60;;
6852;SDS011;3465;42.144;24.722;2022-12-07T01:29:51;38.27;;;16.27;;
6852;SDS011;3465;42.144;24.722;2022-12-07T01:32:17;43.63;;;17.47;;
6852;SDS011;3465;42.144;24.722;2022-12-07T01:34:42;37.33;;;16.27;;
6852;SDS011;3465;42.144;24.722;2022-12-07T01:37:08;40.63;;;17.00;;
6852;SDS011;3465;42.144;24.722;2022-12-07T01:39:33;40.97;;;17.20;;
6852;SDS011;3465;42.144;24.722;2022-12-07T01:41:58;42.23;;;17.17;;
6852;SDS011;3465;42.144;24.722;2022-12-07T01:44:25;47.73;;;17.43;;
6852;SDS011;3465;42.144;24.722;2022-12-07T01:49:38;45.20;;;16.93;;
6852;SDS011;3465;42.144;24.722;2022-12-07T01:54:41;41.40;;;16.87;;
6852;SDS011;3465;42.144;24.722;2022-12-07T01:57:08;47.50;;;17.00;;
6852;SDS011;3465;42.144;24.722;2022-12-07T01:59:34;56.87;;;17.97;;
6852;SDS011;3465;42.144;24.722;2022-12-07T02:02:00;52.67;;;18.23;;
6852;SDS011;3465;42.144;24.722;2022-12-07T02:04:29;66.47;;;18.77;;
6852;SDS011;3465;42.144;24.722;2022-12-07T02:06:55;56.67;;;18.77;;
6852;SDS011;3465;42.144;24.722;2022-12-07T02:09:21;59.77;;;17.83;;
6852;SDS011;3465;42.144;24.722;2022-12-07T02:11:47;56.67;;;18.90;;
6852;SDS011;3465;42.144;24.722;2022-12-07T02:14:13;54.67;;;17.47;;
6852;SDS011;3465;42.144;24.722;2022-12-07T02:16:42;52.07;;;18.57;;
6852;SDS011;3465;42.144;24.722;2022-12-07T02:28:28;52.43;;;18.33;;
6852;SDS011;3465;42.144;24.722;2022-12-07T02:30:58;50.33;;;17.70;;
6852;SDS011;3465;42.144;24.722;2022-12-07T02:33:36;41.47;;;17.23;;
6852;SDS011;3465;42.144;24.722;2022-12-07T02:36:10;40.23;;;17.40;;
6852;SDS011;3465;42.144;24.722;2022-12-07T02:38:45;35.37;;;16.83;;
6852;SDS011;3465;42.144;24.722;2022-12-07T02:41:23;37.17;;;15.90;;
6852;SDS011;3465;42.144;24.722;2022-12-07T02:44:01;54.70;;;17.83;;
6852;SDS011;3465;42.144;24.722;2022-12-07T02:46:30;46.30;;;16.37;;
6852;SDS011;3465;42.144;24.722;2022-12-07T02:49:06;43.33;;;16.40;;
6852;SDS011;3465;42.144;24.722;2022-12-07T02:51:33;38.60;;;16.97;;
6852;SDS011;3465;42.144;24.722;2022-12-07T02:54:07;40.43;;;16.70;;
6852;SDS011;3465;42.144;24.722;2022-12-07T03:07:38;40.90;;;16.37;;
6852;SDS011;3465;42.144;24.722;2022-12-07T03:10:33;43.27;;;15.33;;
6852;SDS011;3465;42.144;24.722;2022-12-07T03:18:30;39.80;;;15.63;;
6852;SDS011;3465;42.144;24.722;2022-12-07T03:21:02;38.27;;;14.20;;
6852;SDS011;3465;42.144;24.722;2022-12-07T03:23:34;36.83;;;14.20;;
6852;SDS011;3465;42.144;24.722;2022-12-07T03:26:02;33.97;;;14.03;;
6852;SDS011;3465;42.144;24.722;2022-12-07T03:28:34;34.53;;;13.73;;
6852;SDS011;3465;42.144;24.722;2022-12-07T03:31:06;38.23;;;14.47;;
6852;SDS011;3465;42.144;24.722;2022-12-07T03:36:35;37.90;;;14.53;;
6852;SDS011;3465;42.144;24.722;2022-12-07T03:39:29;34.13;;;14.20;;
6852;SDS011;3465;42.144;24.722;2022-12-07T03:41:53;31.40;;;13.20;;
6852;SDS011;3465;42.144;24.722;2022-12-07T03:44:19;37.60;;;14.70;;
6852;SDS011;3465;42.144;24.722;2022-12-07T03:49:32;33.73;;;13.90;;
6852;SDS011;3465;42.144;24.722;2022-12-07T03:52:07;32.07;;;14.40;;
6852;SDS011;3465;42.144;24.722;2022-12-07T03:54:37;31.73;;;12.87;;
6852;SDS011;3465;42.144;24.722;2022-12-07T03:57:17;30.90;;;12.30;;
6852;SDS011;3465;42.144;24.722;2022-12-07T03:59:44;36.13;;;13.70;;
6852;SDS011;3465;42.144;24.722;2022-12-07T04:02:11;36.43;;;13.43;;
6852;SDS011;3465;42.144;24.722;2022-12-07T04:04:42;35.40;;;14.17;;
6852;SDS011;3465;42.144;24.722;2022-12-07T04:07:08;32.33;;;13.70;;
6852;SDS011;3465;42.144;24.722;2022-12-07T04:09:33;34.03;;;14.03;;
6852;SDS011;3465;42.144;24.722;2022-12-07T04:11:59;34.90;;;14.50;;
6852;SDS011;3465;42.144;24.722;2022-12-07T04:14:24;36.80;;;16.33;;
6852;SDS011;3465;42.144;24.722;2022-12-07T04:16:51;40.90;;;14.70;;
6852;SDS011;3465;42.144;24.722;2022-12-07T04:19:19;29.00;;;14.10;;
6852;SDS011;3465;42.144;24.722;2022-12-07T04:21:47;35.33;;;15.10;;
6852;SDS011;3465;42.144;24.722;2022-12-07T04:24:13;35.23;;;15.17;;
6852;SDS011;3465;42.144;24.722;2022-12-07T04:26:40;38.40;;;15.60;;
6852;SDS011;3465;42.144;24.722;2022-12-07T04:29:06;34.33;;;13.83;;
6852;SDS011;3465;42.144;24.722;2022-12-07T04:31:32;39.73;;;13.90;;
6852;SDS011;3465;42.144;24.722;2022-12-07T04:33:57;36.13;;;14.07;;
6852;SDS011;3465;42.144;24.722;2022-12-07T04:36:23;36.10;;;13.67;;
6852;SDS011;3465;42.144;24.722;2022-12-07T04:38:48;42.40;;;16.07;;
6852;SDS011;3465;42.144;24.722;2022-12-07T04:41:14;36.10;;;14.87;;
6852;SDS011;3465;42.144;24.722;2022-12-07T04:43:39;36.27;;;14.77;;
6852;SDS011;3465;42.144;24.722;2022-12-07T04:46:04;42.87;;;14.27;;
6852;SDS011;3465;42.144;24.722;2022-12-07T04:48:30;36.03;;;14.80;;
6852;SDS011;3465;42.144;24.722;2022-12-07T04:50:55;48.67;;;15.20;;
6852;SDS011;3465;42.144;24.722;2022-12-07T04:53:21;35.03;;;14.90;;
6852;SDS011;3465;42.144;24.722;2022-12-07T04:55:46;43.80;;;16.57;;
6852;SDS011;3465;42.144;24.722;2022-12-07T04:58:12;36.93;;;15.53;;
6852;SDS011;3465;42.144;24.722;2022-12-07T05:00:38;42.43;;;15.17;;
6852;SDS011;3465;42.144;24.722;2022-12-07T05:03:04;44.57;;;15.77;;
6852;SDS011;3465;42.144;24.722;2022-12-07T05:05:30;42.93;;;15.37;;
6852;SDS011;3465;42.144;24.722;2022-12-07T05:07:55;37.27;;;15.13;;
6852;SDS011;3465;42.144;24.722;2022-12-07T05:10:21;37.37;;;13.67;;
6852;SDS011;3465;42.144;24.722;2022-12-07T05:12:46;37.27;;;15.00;;
6852;SDS011;3465;42.144;24.722;2022-12-07T05:15:13;39.57;;;14.17;;
6852;SDS011;3465;42.144;24.722;2022-12-07T05:17:39;36.03;;;14.23;;
6852;SDS011;3465;42.144;24.722;2022-12-07T05:20:05;42.47;;;14.83;;
6852;SDS011;3465;42.144;24.722;2022-12-07T05:22:31;41.77;;;15.57;;
6852;SDS011;3465;42.144;24.722;2022-12-07T05:24:56;43.77;;;17.97;;
6852;SDS011;3465;42.144;24.722;2022-12-07T05:27:22;50.73;;;18.37;;
6852;SDS011;3465;42.144;24.722;2022-12-07T05:29:49;74.20;;;30.40;;
6852;SDS011;3465;42.144;24.722;2022-12-07T05:32:15;68.47;;;28.60;;
6852;SDS011;3465;42.144;24.722;2022-12-07T05:34:41;68.00;;;28.83;;
6852;SDS011;3465;42.144;24.722;2022-12-07T05:37:06;64.27;;;28.53;;
6852;SDS011;3465;42.144;24.722;2022-12-07T05:39:32;55.77;;;21.70;;
6852;SDS011;3465;42.144;24.722;2022-12-07T05:41:57;48.87;;;19.90;;
6852;SDS011;3465;42.144;24.722;2022-12-07T05:44:41;41.70;;;17.40;;
6852;SDS011;3465;42.144;24.722;2022-12-07T05:47:08;51.27;;;16.97;;
6852;SDS011;3465;42.144;24.722;2022-12-07T05:49:33;37.17;;;14.97;;
6852;SDS011;3465;42.144;24.722;2022-12-07T05:51:59;38.23;;;16.37;;
6852;SDS011;3465;42.144;24.722;2022-12-07T05:54:24;37.60;;;16.50;;
6852;SDS011;3465;42.144;24.722;2022-12-07T05:56:50;47.77;;;17.97;;
6852;SDS011;3465;42.144;24.722;2022-12-07T05:59:15;41.87;;;16.97;;
6852;SDS011;3465;42.144;24.722;2022-12-07T06:01:47;49.20;;;19.10;;
6852;SDS011;3465;42.144;24.722;2022-12-07T06:04:13;46.90;;;17.57;;
6852;SDS011;3465;42.144;24.722;2022-12-07T06:06:39;42.70;;;18.63;;
6852;SDS011;3465;42.144;24.722;2022-12-07T06:09:04;45.80;;;18.30;;
6852;SDS011;3465;42.144;24.722;2022-12-07T06:11:30;39.80;;;16.27;;
6852;SDS011;3465;42.144;24.722;2022-12-07T06:14:14;44.90;;;16.27;;
6852;SDS011;3465;42.144;24.722;2022-12-07T06:16:39;52.43;;;17.60;;
6852;SDS011;3465;42.144;24.722;2022-12-07T06:19:05;45.70;;;15.77;;
6852;SDS011;3465;42.144;24.722;2022-12-07T06:21:30;36.00;;;15.00;;
6852;SDS011;3465;42.144;24.722;2022-12-07T06:23:56;41.70;;;15.30;;
6852;SDS011;3465;42.144;24.722;2022-12-07T06:26:21;43.37;;;15.70;;
6852;SDS011;3465;42.144;24.722;2022-12-07T06:28:46;34.83;;;14.27;;
6852;SDS011;3465;42.144;24.722;2022-12-07T06:31:12;39.57;;;15.03;;
6852;SDS011;3465;42.144;24.722;2022-12-07T06:33:37;38.10;;;14.30;;
6852;SDS011;3465;42.144;24.722;2022-12-07T06:36:03;39.87;;;13.80;;
6852;SDS011;3465;42.144;24.722;2022-12-07T06:38:28;39.47;;;15.63;;
6852;SDS011;3465;42.144;24.722;2022-12-07T06:40:54;35.80;;;14.47;;
6852;SDS011;3465;42.144;24.722;2022-12-07T06:43:19;38.20;;;15.73;;
6852;SDS011;3465;42.144;24.722;2022-12-07T06:45:45;35.77;;;14.80;;
6852;SDS011;3465;42.144;24.722;2022-12-07T06:48:10;36.77;;;16.47;;
6852;SDS011;3465;42.144;24.722;2022-12-07T06:50:35;50.27;;;16.37;;
6852;SDS011;3465;42.144;24.722;2022-12-07T06:53:01;46.53;;;17.47;;
6852;SDS011;3465;42.144;24.722;2022-12-07T06:55:26;42.17;;;16.03;;
6852;SDS011;3465;42.144;24.722;2022-12-07T06:57:52;38.60;;;15.67;;
6852;SDS011;3465;42.144;24.722;2022-12-07T07:00:17;47.70;;;16.10;;
6852;SDS011;3465;42.144;24.722;2022-12-07T07:02:43;39.43;;;16.53;;
6852;SDS011;3465;42.144;24.722;2022-12-07T07:05:08;39.20;;;15.80;;
6852;SDS011;3465;42.144;24.722;2022-12-07T07:07:34;52.63;;;18.07;;
6852;SDS011;3465;42.144;24.722;2022-12-07T07:09:59;77.33;;;20.00;;
6852;SDS011;3465;42.144;24.722;2022-12-07T07:12:24;49.87;;;18.90;;
6852;SDS011;3465;42.144;24.722;2022-12-07T07:14:51;40.87;;;16.67;;
6852;SDS011;3465;42.144;24.722;2022-12-07T07:17:16;44.80;;;17.50;;
6852;SDS011;3465;42.144;24.722;2022-12-07T07:19:41;47.10;;;17.87;;
6852;SDS011;3465;42.144;24.722;2022-12-07T07:22:07;45.63;;;18.03;;
6852;SDS011;3465;42.144;24.722;2022-12-07T07:24:32;44.63;;;18.00;;
6852;SDS011;3465;42.144;24.722;2022-12-07T07:26:57;43.00;;;17.77;;
6852;SDS011;3465;42.144;24.722;2022-12-07T07:29:23;40.30;;;18.17;;
6852;SDS011;3465;42.144;24.722;2022-12-07T07:31:48;38.07;;;17.90;;
6852;SDS011;3465;42.144;24.722;2022-12-07T07:34:14;41.57;;;18.47;;
6852;SDS011;3465;42.144;24.722;2022-12-07T07:36:39;54.90;;;18.97;;
6852;SDS011;3465;42.144;24.722;2022-12-07T07:39:05;45.20;;;18.00;;
6852;SDS011;3465;42.144;24.722;2022-12-07T07:41:30;53.33;;;19.50;;
6852;SDS011;3465;42.144;24.722;2022-12-07T07:43:56;48.97;;;18.63;;
6852;SDS011;3465;42.144;24.722;2022-12-07T07:46:22;42.40;;;17.67;;
6852;SDS011;3465;42.144;24.722;2022-12-07T07:48:47;39.47;;;17.73;;
6852;SDS011;3465;42.144;24.722;2022-12-07T07:51:12;43.47;;;18.47;;
6852;SDS011;3465;42.144;24.722;2022-12-07T07:53:38;42.43;;;19.43;;
6852;SDS011;3465;42.144;24.722;2022-12-07T07:56:03;49.40;;;17.63;;
6852;SDS011;3465;42.144;24.722;2022-12-07T07:58:29;44.40;;;18.93;;
6852;SDS011;3465;42.144;24.722;2022-12-07T08:00:54;38.30;;;17.97;;
6852;SDS011;3465;42.144;24.722;2022-12-07T08:03:20;37.67;;;18.33;;
6852;SDS011;3465;42.144;24.722;2022-12-07T08:05:45;41.97;;;19.30;;
6852;SDS011;3465;42.144;24.722;2022-12-07T08:08:11;41.30;;;19.30;;
6852;SDS011;3465;42.144;24.722;2022-12-07T08:10:37;41.77;;;19.13;;
6852;SDS011;3465;42.144;24.722;2022-12-07T08:13:03;48.47;;;19.70;;
6852;SDS011;3465;42.144;24.722;2022-12-07T08:15:38;45.90;;;20.00;;
6852;SDS011;3465;42.144;24.722;2022-12-07T08:18:06;47.53;;;20.37;;
6852;SDS011;3465;42.144;24.722;2022-12-07T08:20:33;40.20;;;18.67;;
6852;SDS011;3465;42.144;24.722;2022-12-07T08:23:00;49.37;;;18.57;;
6852;SDS011;3465;42.144;24.722;2022-12-07T08:25:26;37.83;;;17.43;;
6852;SDS011;3465;42.144;24.722;2022-12-07T08:27:52;42.03;;;16.87;;
6852;SDS011;3465;42.144;24.722;2022-12-07T08:30:17;39.37;;;17.37;;
6852;SDS011;3465;42.144;24.722;2022-12-07T08:32:46;42.30;;;17.63;;
6852;SDS011;3465;42.144;24.722;2022-12-07T08:35:13;46.97;;;21.33;;
6852;SDS011;3465;42.144;24.722;2022-12-07T08:37:39;52.10;;;23.20;;
6852;SDS011;3465;42.144;24.722;2022-12-07T08:40:07;53.20;;;22.37;;
6852;SDS011;3465;42.144;24.722;2022-12-07T08:42:34;43.53;;;19.80;;
6852;SDS011;3465;42.144;24.722;2022-12-07T08:45:08;44.57;;;19.00;;
6852;SDS011;3465;42.144;24.722;2022-12-07T08:47:39;51.53;;;20.07;;
6852;SDS011;3465;42.144;24.722;2022-12-07T08:50:08;49.17;;;21.17;;
6852;SDS011;3465;42.144;24.722;2022-12-07T08:52:35;51.93;;;22.17;;
6852;SDS011;3465;42.144;24.722;2022-12-07T08:55:01;52.13;;;21.63;;
6852;SDS011;3465;42.144;24.722;2022-12-07T08:57:28;44.60;;;21.80;;
6852;SDS011;3465;42.144;24.722;2022-12-07T08:59:55;45.27;;;20.30;;
6852;SDS011;3465;42.144;24.722;2022-12-07T09:02:23;44.93;;;21.27;;
6852;SDS011;3465;42.144;24.722;2022-12-07T09:04:49;46.77;;;21.70;;
6852;SDS011;3465;42.144;24.722;2022-12-07T09:07:14;48.57;;;21.17;;
6852;SDS011;3465;42.144;24.722;2022-12-07T09:09:40;59.40;;;21.47;;
6852;SDS011;3465;42.144;24.722;2022-12-07T09:12:05;43.63;;;19.57;;
6852;SDS011;3465;42.144;24.722;2022-12-07T09:14:31;45.27;;;21.10;;
6852;SDS011;3465;42.144;24.722;2022-12-07T09:17:04;82.47;;;34.83;;
6852;SDS011;3465;42.144;24.722;2022-12-07T09:19:31;57.43;;;23.27;;
6852;SDS011;3465;42.144;24.722;2022-12-07T09:21:56;54.57;;;21.50;;
6852;SDS011;3465;42.144;24.722;2022-12-07T09:24:21;44.87;;;20.83;;
6852;SDS011;3465;42.144;24.722;2022-12-07T09:26:47;46.20;;;20.27;;
6852;SDS011;3465;42.144;24.722;2022-12-07T09:29:13;52.43;;;20.50;;
6852;SDS011;3465;42.144;24.722;2022-12-07T09:31:38;89.53;;;38.87;;
6852;SDS011;3465;42.144;24.722;2022-12-07T09:34:04;39.43;;;19.80;;
6852;SDS011;3465;42.144;24.722;2022-12-07T09:36:31;45.17;;;20.33;;
6852;SDS011;3465;42.144;24.722;2022-12-07T09:38:56;49.57;;;22.93;;
6852;SDS011;3465;42.144;24.722;2022-12-07T09:41:22;43.63;;;20.03;;
6852;SDS011;3465;42.144;24.722;2022-12-07T09:43:49;39.73;;;20.00;;
6852;SDS011;3465;42.144;24.722;2022-12-07T09:46:16;43.73;;;19.93;;
6852;SDS011;3465;42.144;24.722;2022-12-07T09:48:44;58.23;;;21.30;;
6852;SDS011;3465;42.144;24.722;2022-12-07T09:53:49;45.70;;;19.90;;
6852;SDS011;3465;42.144;24.722;2022-12-07T09:56:16;49.13;;;20.37;;
6852;SDS011;3465;42.144;24.722;2022-12-07T09:58:43;49.83;;;22.57;;
6852;SDS011;3465;42.144;24.722;2022-12-07T10:01:14;52.47;;;20.53;;
6852;SDS011;3465;42.144;24.722;2022-12-07T10:04:08;55.10;;;22.20;;
6852;SDS011;3465;42.144;24.722;2022-12-07T10:06:34;44.93;;;18.97;;
6852;SDS011;3465;42.144;24.722;2022-12-07T10:08:59;47.90;;;19.40;;
6852;SDS011;3465;42.144;24.722;2022-12-07T10:11:25;44.40;;;18.50;;
6852;SDS011;3465;42.144;24.722;2022-12-07T10:13:52;44.73;;;18.90;;
6852;SDS011;3465;42.144;24.722;2022-12-07T10:19:19;42.10;;;19.87;;
6852;SDS011;3465;42.144;24.722;2022-12-07T10:22:34;40.67;;;18.23;;
6852;SDS011;3465;42.144;24.722;2022-12-07T10:24:44;47.07;;;20.17;;
6852;SDS011;3465;42.144;24.722;2022-12-07T10:29:51;49.17;;;18.93;;
6852;SDS011;3465;42.144;24.722;2022-12-07T10:34:43;45.17;;;18.40;;
6852;SDS011;3465;42.144;24.722;2022-12-07T10:42:28;43.57;;;18.87;;
6852;SDS011;3465;42.144;24.722;2022-12-07T10:45:08;42.03;;;18.63;;
6852;SDS011;3465;42.144;24.722;2022-12-07T10:50:29;39.03;;;16.80;;
6852;SDS011;3465;42.144;24.722;2022-12-07T11:12:32;38.93;;;16.80;;
6852;SDS011;3465;42.144;24.722;2022-12-07T11:18:08;36.47;;;17.00;;
6852;SDS011;3465;42.144;24.722;2022-12-07T11:20:59;31.50;;;15.87;;
6852;SDS011;3465;42.144;24.722;2022-12-07T11:26:11;32.73;;;15.80;;
6852;SDS011;3465;42.144;24.722;2022-12-07T11:29:07;35.33;;;14.90;;
6852;SDS011;3465;42.144;24.722;2022-12-07T11:37:31;32.70;;;14.70;;
6852;SDS011;3465;42.144;24.722;2022-12-07T11:40:01;31.33;;;12.87;;
6852;SDS011;3465;42.144;24.722;2022-12-07T11:42:33;27.27;;;13.37;;
6852;SDS011;3465;42.144;24.722;2022-12-07T11:47:59;27.50;;;12.03;;
6852;SDS011;3465;42.144;24.722;2022-12-07T11:53:19;28.53;;;13.50;;
6852;SDS011;3465;42.144;24.722;2022-12-07T11:56:02;33.13;;;13.83;;
6852;SDS011;3465;42.144;24.722;2022-12-07T11:58:40;26.20;;;12.87;;
6852;SDS011;3465;42.144;24.722;2022-12-07T12:03:40;31.47;;;12.70;;
6852;SDS011;3465;42.144;24.722;2022-12-07T12:06:12;30.53;;;12.50;;
6852;SDS011;3465;42.144;24.722;2022-12-07T12:08:46;28.47;;;13.33;;
6852;SDS011;3465;42.144;24.722;2022-12-07T12:20:20;30.10;;;13.13;;
6852;SDS011;3465;42.144;24.722;2022-12-07T12:22:56;28.00;;;12.40;;
6852;SDS011;3465;42.144;24.722;2022-12-07T12:25:30;27.00;;;12.50;;
6852;SDS011;3465;42.144;24.722;2022-12-07T12:28:01;27.50;;;13.57;;
6852;SDS011;3465;42.144;24.722;2022-12-07T12:33:13;30.40;;;12.93;;
6852;SDS011;3465;42.144;24.722;2022-12-07T12:35:44;32.77;;;13.33;;
6852;SDS011;3465;42.144;24.722;2022-12-07T12:38:27;36.10;;;13.77;;
6852;SDS011;3465;42.144;24.722;2022-12-07T12:40:56;31.23;;;13.33;;
6852;SDS011;3465;42.144;24.722;2022-12-07T13:02:24;29.77;;;13.83;;
6852;SDS011;3465;42.144;24.722;2022-12-07T13:05:00;35.67;;;16.93;;
6852;SDS011;3465;42.144;24.722;2022-12-07T13:12:56;33.37;;;14.83;;
6852;SDS011;3465;42.144;24.722;2022-12-07T13:15:32;32.03;;;14.17;;
6852;SDS011;3465;42.144;24.722;2022-12-07T13:18:03;33.37;;;14.17;;
6852;SDS011;3465;42.144;24.722;2022-12-07T13:23:16;28.57;;;13.43;;
6852;SDS011;3465;42.144;24.722;2022-12-07T13:25:46;29.20;;;13.03;;
6852;SDS011;3465;42.144;24.722;2022-12-07T13:28:18;35.77;;;14.13;;
6852;SDS011;3465;42.144;24.722;2022-12-07T13:31:03;36.50;;;13.70;;
6852;SDS011;3465;42.144;24.722;2022-12-07T13:33:30;30.90;;;13.30;;
6852;SDS011;3465;42.144;24.722;2022-12-07T13:35:55;28.53;;;13.53;;
6852;SDS011;3465;42.144;24.722;2022-12-07T13:38:27;27.63;;;13.43;;
6852;SDS011;3465;42.144;24.722;2022-12-07T13:41:14;27.03;;;12.47;;
6852;SDS011;3465;42.144;24.722;2022-12-07T13:43:48;23.90;;;11.67;;
6852;SDS011;3465;42.144;24.722;2022-12-07T13:46:16;31.43;;;13.03;;
6852;SDS011;3465;42.144;24.722;2022-12-07T13:48:45;29.70;;;12.63;;
6852;SDS011;3465;42.144;24.722;2022-12-07T13:51:17;31.83;;;13.23;;
6852;SDS011;3465;42.144;24.722;2022-12-07T13:54:08;28.80;;;12.63;;
6852;SDS011;3465;42.144;24.722;2022-12-07T13:56:35;32.13;;;12.77;;
6852;SDS011;3465;42.144;24.722;2022-12-07T13:59:01;25.40;;;12.17;;
6852;SDS011;3465;42.144;24.722;2022-12-07T14:01:27;33.33;;;13.17;;
6852;SDS011;3465;42.144;24.722;2022-12-07T14:03:55;32.07;;;14.17;;
6852;SDS011;3465;42.144;24.722;2022-12-07T14:06:47;37.53;;;14.63;;
6852;SDS011;3465;42.144;24.722;2022-12-07T14:11:47;30.13;;;13.47;;
6852;SDS011;3465;42.144;24.722;2022-12-07T14:14:16;32.07;;;13.03;;
6852;SDS011;3465;42.144;24.722;2022-12-07T14:16:54;35.73;;;13.67;;
6852;SDS011;3465;42.144;24.722;2022-12-07T14:19:41;31.50;;;14.33;;
6852;SDS011;3465;42.144;24.722;2022-12-07T14:22:07;32.93;;;15.47;;
6852;SDS011;3465;42.144;24.722;2022-12-07T14:24:43;32.00;;;13.33;;
6852;SDS011;3465;42.144;24.722;2022-12-07T14:27:21;31.40;;;13.30;;
6852;SDS011;3465;42.144;24.722;2022-12-07T14:29:50;48.83;;;18.33;;
6852;SDS011;3465;42.144;24.722;2022-12-07T14:32:23;35.43;;;15.00;;
6852;SDS011;3465;42.144;24.722;2022-12-07T14:34:54;33.40;;;14.53;;
6852;SDS011;3465;42.144;24.722;2022-12-07T14:37:49;40.20;;;16.73;;
6852;SDS011;3465;42.144;24.722;2022-12-07T14:40:21;53.63;;;21.30;;
6852;SDS011;3465;42.144;24.722;2022-12-07T14:42:59;58.73;;;23.20;;
6852;SDS011;3465;42.144;24.722;2022-12-07T14:45:26;45.77;;;20.40;;
6852;SDS011;3465;42.144;24.722;2022-12-07T14:47:52;36.67;;;15.53;;
6852;SDS011;3465;42.144;24.722;2022-12-07T14:50:19;40.67;;;16.80;;
6852;SDS011;3465;42.144;24.722;2022-12-07T14:52:51;35.97;;;16.33;;
6852;SDS011;3465;42.144;24.722;2022-12-07T14:55:22;34.90;;;15.10;;
6852;SDS011;3465;42.144;24.722;2022-12-07T14:57:49;92.23;;;38.43;;
6852;SDS011;3465;42.144;24.722;2022-12-07T15:00:15;70.17;;;29.20;;
6852;SDS011;3465;42.144;24.722;2022-12-07T15:02:42;58.87;;;24.40;;
6852;SDS011;3465;42.144;24.722;2022-12-07T15:05:08;62.33;;;20.20;;
6852;SDS011;3465;42.144;24.722;2022-12-07T15:07:34;56.90;;;22.70;;
6852;SDS011;3465;42.144;24.722;2022-12-07T15:09:59;63.97;;;23.87;;
6852;SDS011;3465;42.144;24.722;2022-12-07T15:12:24;62.87;;;23.90;;
6852;SDS011;3465;42.144;24.722;2022-12-07T15:14:50;60.43;;;25.50;;
6852;SDS011;3465;42.144;24.722;2022-12-07T15:17:15;69.20;;;25.80;;
6852;SDS011;3465;42.144;24.722;2022-12-07T15:19:41;57.53;;;21.83;;
6852;SDS011;3465;42.144;24.722;2022-12-07T15:22:07;53.20;;;20.47;;
6852;SDS011;3465;42.144;24.722;2022-12-07T15:24:33;87.13;;;32.03;;
6852;SDS011;3465;42.144;24.722;2022-12-07T15:26:59;54.50;;;21.70;;
6852;SDS011;3465;42.144;24.722;2022-12-07T15:29:24;54.10;;;19.80;;
6852;SDS011;3465;42.144;24.722;2022-12-07T15:31:50;47.20;;;19.03;;
6852;SDS011;3465;42.144;24.722;2022-12-07T15:34:16;87.93;;;31.10;;
6852;SDS011;3465;42.144;24.722;2022-12-07T15:36:41;60.40;;;20.43;;
6852;SDS011;3465;42.144;24.722;2022-12-07T15:39:07;83.30;;;26.93;;
6852;SDS011;3465;42.144;24.722;2022-12-07T15:41:34;80.70;;;27.80;;
6852;SDS011;3465;42.144;24.722;2022-12-07T15:44:00;68.33;;;24.47;;
6852;SDS011;3465;42.144;24.722;2022-12-07T15:46:44;65.70;;;24.43;;
6852;SDS011;3465;42.144;24.722;2022-12-07T15:49:11;65.77;;;25.03;;
6852;SDS011;3465;42.144;24.722;2022-12-07T15:51:39;76.80;;;26.80;;
6852;SDS011;3465;42.144;24.722;2022-12-07T15:54:05;73.20;;;30.73;;
6852;SDS011;3465;42.144;24.722;2022-12-07T15:56:30;87.33;;;29.63;;
6852;SDS011;3465;42.144;24.722;2022-12-07T15:58:56;96.00;;;36.30;;
6852;SDS011;3465;42.144;24.722;2022-12-07T16:01:22;89.67;;;33.10;;
6852;SDS011;3465;42.144;24.722;2022-12-07T16:03:47;84.63;;;27.50;;
6852;SDS011;3465;42.144;24.722;2022-12-07T16:06:15;56.53;;;24.00;;
6852;SDS011;3465;42.144;24.722;2022-12-07T16:08:42;50.53;;;21.47;;
6852;SDS011;3465;42.144;24.722;2022-12-07T16:11:08;50.93;;;20.57;;
6852;SDS011;3465;42.144;24.722;2022-12-07T16:13:34;58.63;;;20.57;;
6852;SDS011;3465;42.144;24.722;2022-12-07T16:16:07;55.63;;;21.93;;
6852;SDS011;3465;42.144;24.722;2022-12-07T16:18:35;58.10;;;23.23;;
6852;SDS011;3465;42.144;24.722;2022-12-07T16:21:01;68.47;;;24.07;;
6852;SDS011;3465;42.144;24.722;2022-12-07T16:23:26;70.77;;;25.33;;
6852;SDS011;3465;42.144;24.722;2022-12-07T16:25:52;65.17;;;23.90;;
6852;SDS011;3465;42.144;24.722;2022-12-07T16:28:18;57.70;;;24.23;;
6852;SDS011;3465;42.144;24.722;2022-12-07T16:30:43;65.30;;;24.60;;
6852;SDS011;3465;42.144;24.722;2022-12-07T16:33:09;85.50;;;28.97;;
6852;SDS011;3465;42.144;24.722;2022-12-07T16:35:37;67.93;;;27.80;;
6852;SDS011;3465;42.144;24.722;2022-12-07T16:38:05;70.47;;;26.13;;
6852;SDS011;3465;42.144;24.722;2022-12-07T16:40:31;65.97;;;23.13;;
6852;SDS011;3465;42.144;24.722;2022-12-07T16:42:57;66.33;;;20.77;;
6852;SDS011;3465;42.144;24.722;2022-12-07T16:45:22;64.37;;;20.50;;
6852;SDS011;3465;42.144;24.722;2022-12-07T16:47:48;61.00;;;24.03;;
6852;SDS011;3465;42.144;24.722;2022-12-07T16:50:13;68.10;;;22.73;;
6852;SDS011;3465;42.144;24.722;2022-12-07T16:52:39;98.43;;;31.50;;
6852;SDS011;3465;42.144;24.722;2022-12-07T16:55:04;121.40;;;39.93;;
6852;SDS011;3465;42.144;24.722;2022-12-07T16:57:30;121.93;;;40.13;;